Latest Weather Observations for Dalby

IDQ60801

Issued at 4:05 pm EST Thursday 24 July 2014 (issued every 30 minutes, with the page automatically refreshed every 10 minutes)

About weather observations | Map of weather stations | Latest weather observations for QLD | Other Formats
Station Details ID: 041522 Name: DALBY AIRPORT Lat: -27.16 Lon: 151.26 Height: 343.9 m
Data from the previous 72 hours. | See also: Recent months at Dalby
Date/Time
EST
Temp
°C
App
Temp
°C
Dew
Point
Rel
Hum
%
Delta-T
°C
Wind Press
QNH
hPa
Press
MSL
hPa
Rain
since 9 am
mm
Dir
 
Spd
km/h
Gust
km/h
Spd
kts
Gust
kts
24/04:00pm 21.9 18.9 2.1 27 9.4 NNE 7 15 4 8 1019.7 1019.7 0.0
24/03:30pm 20.9 16.8 2.2 29 8.8 N 13 19 7 10 1019.7 - 0.0
24/03:00pm 21.6 18.0 2.8 29 9.0 N 11 17 6 9 1019.7 1019.7 0.0
24/02:30pm 22.6 20.3 2.7 27 9.6 E 4 11 2 6 1019.7 - 0.0
24/02:00pm 22.4 19.2 3.0 28 9.4 NE 9 19 5 10 1019.9 1019.9 0.0
24/01:30pm 21.6 17.6 2.8 29 9.0 N 13 22 7 12 1020.0 - 0.0
24/01:00pm 21.4 18.2 3.1 30 8.8 NW 9 13 5 7 1020.4 1020.4 0.0
24/12:30pm 21.5 18.0 3.7 31 8.7 E 11 15 6 8 1020.7 - 0.0
24/12:00pm 21.2 19.1 3.9 32 8.5 N 4 13 2 7 1021.3 1021.3 0.0
24/11:30am 20.5 16.7 3.7 33 8.2 N 13 20 7 11 1022.1 - 0.0
24/11:00am 20.6 16.8 3.8 33 8.2 N 13 20 7 11 1022.5 1022.5 0.0
24/10:30am 19.2 17.4 7.0 45 6.3 NNE 6 13 3 7 1022.7 - 0.0
24/10:00am 18.4 16.2 7.8 50 5.5 N 9 15 5 8 1022.7 1022.7 0.0
24/09:30am 17.0 14.8 7.9 55 4.7 NNE 9 15 5 8 1022.8 - 0.0
24/09:00am 16.0 14.1 7.5 57 4.3 NE 7 11 4 6 1022.6 1022.6 0.0
24/08:30am 14.4 12.6 9.4 72 2.6 ENE 9 13 5 7 1022.1 - 0.0
24/08:00am 12.6 10.7 9.2 80 1.7 ESE 9 11 5 6 1021.5 1021.5 0.0
24/07:30am 10.6 8.3 9.0 90 0.8 ESE 11 13 6 7 1021.5 - 0.0
24/07:00am 8.7 6.1 7.6 93 0.5 SE 11 11 6 6 1021.7 1021.7 0.0
24/06:30am 6.9 4.1 5.2 89 0.8 SE 9 11 5 6 1021.5 - 0.0
24/06:00am 9.7 8.0 8.5 92 0.6 SSE 7 9 4 5 1021.5 1021.5 0.0
24/05:30am 9.5 9.1 8.3 92 0.6 CALM 0 0 0 0 1021.0 - 0.0
24/05:00am 10.0 8.6 7.4 84 1.3 ENE 4 7 2 4 1020.5 1020.5 0.0
24/04:30am 11.3 9.5 8.0 80 1.6 NE 7 11 4 6 1020.2 - 0.0
24/04:00am 12.1 9.0 8.8 80 1.7 E 15 19 8 10 1019.9 1019.9 0.0
24/03:30am 12.2 9.1 9.0 81 1.6 E 15 19 8 10 1020.2 - 0.0
24/03:00am 12.4 9.0 9.2 81 1.6 E 17 20 9 11 1020.4 1020.4 0.0
24/02:30am 12.5 9.1 9.1 80 1.7 E 17 20 9 11 1020.6 - 0.0
24/02:00am 12.3 8.8 8.8 79 1.8 E 17 20 9 11 1020.6 1020.6 0.0
24/01:30am 12.5 9.3 8.6 77 2.0 E 15 20 8 11 1021.2 - 0.0
24/01:00am 13.1 9.0 8.8 75 2.2 E 20 26 11 14 1021.2 1021.2 0.0
24/12:30am 13.2 8.7 8.7 74 2.3 E 22 32 12 17 1021.1 - 0.0
24/12:00am 13.3 8.8 8.4 72 2.5 E 22 28 12 15 1021.2 1021.2 0.0
 
Date/Time
EST
Temp
°C
App
Temp
°C
Dew
Point
Rel
Hum
%
Delta-T
°C
Wind Press
QNH
hPa
Press
MSL
hPa
Rain
since 9 am
mm
Dir
 
Spd
km/h
Gust
km/h
Spd
kts
Gust
kts
23/11:30pm 13.5 8.9 8.1 70 2.7 E 22 28 12 15 1021.4 - 0.0
23/11:00pm 13.4 8.3 7.8 69 2.8 E 24 30 13 16 1021.3 1021.3 0.0
23/10:30pm 13.6 8.8 7.2 65 3.2 E 22 28 12 15 1021.5 - 0.0
23/10:00pm 12.2 8.0 5.6 64 3.1 E 17 20 9 11 1021.5 1021.5 0.0
23/09:30pm 11.7 8.2 5.3 65 3.0 E 13 17 7 9 1021.4 - 0.0
23/09:00pm 11.8 7.8 5.0 63 3.2 E 15 15 8 8 1021.1 1021.1 0.0
23/08:30pm 11.4 7.7 4.6 63 3.1 E 13 15 7 8 1021.1 - 0.0
23/08:00pm 12.4 8.0 4.9 60 3.5 E 17 17 9 9 1020.8 1020.8 0.0
23/07:30pm 13.6 9.2 5.0 56 4.1 E 17 20 9 11 1020.3 - 0.0
23/07:00pm 13.4 9.1 3.2 50 4.6 ESE 15 19 8 10 1020.1 1020.1 0.0
23/06:30pm 15.3 13.8 3.1 44 5.6 CALM 0 0 0 0 1019.6 - 0.0
23/06:00pm 15.1 13.6 3.0 44 5.5 ESE 0 0 0 0 1019.5 1019.5 0.0
23/05:30pm 16.6 14.8 1.5 36 6.8 CALM 0 0 0 0 1019.5 - 0.0
23/05:00pm 18.3 16.7 2.2 34 7.4 CALM 0 0 0 0 1019.5 1019.5 0.0
23/04:30pm 18.9 16.5 2.3 33 7.8 S 4 7 2 4 1019.2 - 0.0
23/04:00pm 19.8 16.9 2.6 32 8.1 E 7 13 4 7 1019.4 1019.4 0.0
23/03:30pm 19.6 16.7 2.5 32 8.1 SSE 7 13 4 7 1019.4 - 0.0
23/03:00pm 18.9 15.1 1.9 32 7.9 ESE 11 20 6 11 1019.4 1019.4 0.0
23/02:30pm 19.7 16.8 2.6 32 8.1 S 7 13 4 7 1019.5 - 0.0
23/02:00pm 19.6 16.9 2.9 33 7.9 WSW 6 13 3 7 1019.9 1019.9 0.0
23/01:30pm 18.9 14.6 3.5 36 7.4 WSW 15 20 8 11 1020.2 - 0.0
23/01:00pm 18.9 17.3 4.3 38 7.1 NW 2 9 1 5 1020.6 1020.6 0.0
23/12:30pm 17.9 14.6 4.8 42 6.4 SW 11 15 6 8 1021.2 - 0.0
23/12:00pm 18.3 15.1 5.2 42 6.4 SSE 11 19 6 10 1021.6 1021.6 0.0
23/11:30am 18.2 15.7 6.4 46 5.9 WSW 9 15 5 8 1021.9 - 0.0
23/11:00am 17.1 15.6 6.6 50 5.3 W 4 11 2 6 1022.5 1022.5 0.0
23/10:30am 16.8 15.1 7.7 55 4.7 SSE 6 13 3 7 1022.9 - 0.0
23/10:00am 15.6 13.1 8.4 62 3.7 E 11 15 6 8 1023.4 1023.5 0.0
23/09:30am 14.9 12.8 8.4 65 3.3 ESE 9 17 5 9 1023.4 - 0.0
23/09:00am 12.5 10.0 8.2 75 2.2 ESE 11 15 6 8 1023.5 1023.6 -
23/08:30am 10.5 8.1 7.2 80 1.6 ESE 9 11 5 6 1023.2 - -
23/08:00am 8.6 6.0 6.1 84 1.2 SE 9 13 5 7 1022.9 1022.9 -
23/07:30am 6.5 3.6 4.8 89 0.8 SSE 9 13 5 7 1022.8 - -
23/07:00am 5.8 2.1 4.4 91 0.6 SSE 13 19 7 10 1022.3 1022.3 -
23/06:30am 5.1 2.1 3.9 92 0.5 SSE 9 11 5 6 1021.7 - -
23/06:00am 5.2 1.0 3.7 90 0.6 SSE 15 17 8 9 1021.1 1021.1 -
23/05:30am 5.8 2.1 4.6 92 0.5 SSE 13 15 7 8 1020.7 - -
23/05:00am 4.4 0.8 2.9 90 0.6 SSE 11 13 6 7 1020.5 1020.5 -
23/04:30am 5.2 1.7 3.5 89 0.7 SSE 11 13 6 7 1020.3 - -
23/04:00am 4.8 1.0 3.8 93 0.4 S 13 15 7 8 1020.4 1020.4 -
23/03:30am 4.5 1.7 3.0 90 0.6 SSW 7 11 4 6 1020.3 - -
23/03:00am 4.0 2.3 1.9 86 0.8 CALM 0 0 0 0 1020.0 1020.0 -
23/02:30am 4.4 2.6 1.3 80 1.2 CALM 0 0 0 0 1020.2 - -
23/02:00am 6.2 3.3 4.5 89 0.7 E 9 11 5 6 1020.5 1020.5 -
23/01:30am 6.2 2.5 4.2 87 0.9 E 13 15 7 8 1020.5 - -
23/01:00am 6.1 2.0 4.3 88 0.8 ESE 15 17 8 9 1020.6 1020.6 -
23/12:30am 4.0 -0.3 1.0 81 1.2 E 13 15 7 8 1020.7 - -
23/12:00am 3.9 -0.5 0.2 77 1.4 E 13 15 7 8 1020.7 1020.7 -
 
Date/Time
EST
Temp
°C
App
Temp
°C
Dew
Point
Rel
Hum
%
Delta-T
°C
Wind Press
QNH
hPa
Press
MSL
hPa
Rain
since 9 am
mm
Dir
 
Spd
km/h
Gust
km/h
Spd
kts
Gust
kts
22/11:30pm 5.2 0.5 0.6 72 1.8 E 15 17 8 9 1020.8 - -
22/11:00pm 4.6 -0.3 -0.2 71 1.8 ESE 15 17 8 9 1021.1 1021.1 -
22/10:30pm 5.2 0.6 -0.8 65 2.3 ESE 13 13 7 7 1021.2 - 0.0
22/10:00pm 6.4 2.1 -1.5 57 3.0 ESE 11 11 6 6 1021.3 1021.3 0.0
22/09:30pm 7.7 2.7 -1.0 54 3.4 ESE 15 17 8 9 1021.3 - 0.0
22/09:00pm 9.7 6.2 -1.3 46 4.3 SSW 7 7 4 4 1021.2 1021.2 0.0
22/08:30pm 10.4 6.1 -1.6 43 4.8 SSW 11 13 6 7 1021.1 - 0.0
22/08:00pm 12.2 7.9 -1.3 39 5.5 SSW 11 11 6 6 1020.7 1020.7 0.0
22/07:30pm 11.0 7.2 -1.1 43 4.9 SSW 9 11 5 6 1020.5 - 0.0
22/07:00pm 11.6 8.2 -0.9 42 5.1 SW 7 9 4 5 1020.4 1020.4 0.0
22/06:30pm 12.5 8.5 -2.1 36 5.9 SSW 9 11 5 6 1020.1 - 0.0
22/06:00pm 15.6 11.4 -0.6 33 6.9 SSW 11 15 6 8 1019.7 1019.7 0.0
22/05:30pm 16.4 12.0 0.1 33 7.1 SW 13 15 7 8 1019.2 - 0.0
22/05:00pm 18.9 14.2 1.0 30 8.1 SW 15 22 8 12 1019.0 1019.0 0.0
22/04:30pm 19.9 15.6 0.9 28 8.7 SSW 13 17 7 9 1018.8 - 0.0
22/04:00pm 20.3 14.6 0.7 27 8.9 WSW 20 24 11 13 1018.6 1018.6 0.0
22/03:30pm 20.2 14.7 1.6 29 8.7 S 20 24 11 13 1018.6 - 0.0
22/03:00pm 19.6 14.6 1.6 30 8.3 WSW 17 26 9 14 1018.7 1018.7 0.0
22/02:30pm 20.0 15.5 2.4 31 8.3 S 15 24 8 13 1018.7 - 0.0
22/02:00pm 19.9 16.0 3.6 34 7.9 WSW 13 24 7 13 1018.9 1018.9 0.0
22/01:30pm 19.5 15.4 2.4 32 8.0 WSW 13 20 7 11 1019.2 - 0.0
22/01:00pm 19.7 14.8 2.1 31 8.2 SW 17 26 9 14 1019.4 1019.4 0.0
22/12:30pm 19.8 15.2 3.5 34 7.8 W 17 22 9 12 1019.8 - 0.0
22/12:00pm 18.5 15.5 7.9 50 5.5 WNW 13 24 7 13 1020.5 1020.5 0.0
22/11:30am 17.8 14.3 8.9 56 4.7 W 17 24 9 13 1021.4 - 0.0
22/11:00am 17.3 14.2 9.0 58 4.4 W 15 20 8 11 1021.9 1021.9 0.0
22/10:30am 16.2 14.0 9.2 63 3.7 W 11 15 6 8 1022.3 - 0.0
22/10:00am 15.6 14.2 9.7 68 3.1 WSW 7 11 4 6 1022.5 1022.5 0.0
22/09:30am 13.9 12.1 9.3 74 2.4 SW 9 11 5 6 1022.5 - 0.0
22/09:00am 12.7 12.5 9.2 79 1.8 CALM 0 6 0 3 1022.4 1022.4 0.0
22/08:30am 8.4 7.8 7.6 95 0.4 CALM 0 6 0 3 1022.4 - 0.0
22/08:00am 6.4 5.4 5.8 96 0.3 CALM 0 0 0 0 1022.3 1022.3 0.0
22/07:30am 4.5 3.2 3.9 96 0.3 CALM 0 7 0 4 1022.1 - 0.0
22/07:00am 2.7 -0.1 2.0 95 0.3 E 6 7 3 4 1021.8 1021.8 0.0
22/06:30am 2.7 -0.2 1.7 93 0.4 NE 6 7 3 4 1021.4 - 0.0
22/06:00am 3.5 0.5 2.3 92 0.5 NE 7 9 4 5 1021.2 1021.2 0.0
22/05:30am 3.9 1.2 2.6 91 0.5 NNE 6 9 3 5 1021.0 - 0.0
22/05:00am 4.2 1.5 2.6 89 0.7 ENE 6 7 3 4 1020.7 1020.7 0.0
22/04:30am 4.9 2.3 3.1 88 0.8 ESE 6 7 3 4 1020.6 - 0.0
22/04:00am 6.0 4.8 4.6 91 0.6 CALM 0 4 0 2 1020.7 1020.7 0.0
22/03:30am 6.3 5.2 5.1 92 0.5 CALM 0 4 0 2 1020.6 - 0.0
22/03:00am 7.2 4.9 5.8 91 0.6 SSE 7 9 4 5 1020.6 1020.6 0.0
22/02:30am 8.1 4.9 7.0 93 0.5 S 13 13 7 7 1020.8 - 0.0
22/02:00am 7.8 5.4 6.9 94 0.4 SE 9 11 5 6 1020.7 1020.7 0.0
22/01:30am 8.4 7.0 7.3 93 0.5 SSE 4 6 2 3 1021.0 - 0.0
22/01:00am 8.7 7.0 7.6 93 0.5 SSE 6 7 3 4 1021.1 1021.1 0.0
22/12:30am 9.2 7.0 7.8 91 0.7 E 9 11 5 6 1021.2 - 0.0
22/12:00am 9.0 6.0 7.5 90 0.7 E 13 15 7 8 1021.0 1021.0 0.0
 
Date/Time
EST
Temp
°C
App
Temp
°C
Dew
Point
Rel
Hum
%
Delta-T
°C
Wind Press
QNH
hPa
Press
MSL
hPa
Rain
since 9 am
mm
Dir
 
Spd
km/h
Gust
km/h
Spd
kts
Gust
kts
21/11:30pm 9.2 6.2 7.5 89 0.8 ESE 13 13 7 7 1021.3 - 0.0
21/11:00pm 9.9 9.1 8.2 89 0.8 ESE 2 9 1 5 1021.7 1021.7 0.0
21/10:30pm 9.4 7.1 5.8 78 1.7 ENE 7 9 4 5 1021.8 - 0.0
21/10:00pm 10.8 7.3 7.3 79 1.7 E 15 17 8 9 1021.8 1021.8 0.0
21/09:30pm 11.8 8.0 7.7 76 2.0 ESE 17 20 9 11 1021.6 - 0.0
21/09:00pm 10.8 7.4 6.0 72 2.3 ESE 13 15 7 8 1021.5 1021.5 0.0
21/08:30pm 11.5 8.1 5.8 68 2.7 E 13 15 7 8 1021.3 - 0.0
21/08:00pm 12.6 9.2 6.0 64 3.2 E 13 15 7 8 1021.1 1021.1 0.0
21/07:30pm 13.1 9.8 6.5 64 3.2 E 13 17 7 9 1020.6 - 0.0
21/07:00pm 13.0 8.8 5.9 62 3.4 E 17 19 9 10 1020.3 1020.3 0.0
21/06:30pm 13.4 9.9 5.6 59 3.7 E 13 13 7 7 1020.3 - 0.0
21/06:00pm 15.5 12.4 5.4 51 4.9 E 11 13 6 7 1020.0 1020.0 0.0
21/05:30pm 17.1 13.6 5.4 46 5.7 ESE 13 15 7 8 1019.7 - 0.0
21/05:00pm 19.5 17.1 4.4 37 7.4 E 6 7 3 4 1019.5 1019.5 0.0
21/04:30pm 20.8 18.7 4.0 33 8.2 E 4 9 2 5 1019.3 - 0.0

Other Formats:

Comma delimited format used in spreadsheet applications
http://www.bom.gov.au/fwo/IDQ60801/IDQ60801.94542.axf

JavaScript Object Notation format (JSON) in row-major order
http://www.bom.gov.au/fwo/IDQ60801/IDQ60801.94542.json